sensor_id;sensor_type;location;lat;lon;timestamp;P1;durP1;ratioP1;P2;durP2;ratioP2
48861;SDS011;34681;49.188;-0.374;2023-07-02T00:02:19;30.97;;;15.10;;
48861;SDS011;34681;49.188;-0.374;2023-07-02T00:04:45;23.90;;;14.03;;
48861;SDS011;34681;49.188;-0.374;2023-07-02T00:07:10;26.00;;;13.17;;
48861;SDS011;34681;49.188;-0.374;2023-07-02T00:09:36;21.37;;;13.70;;
48861;SDS011;34681;49.188;-0.374;2023-07-02T00:12:02;26.27;;;13.33;;
48861;SDS011;34681;49.188;-0.374;2023-07-02T00:14:27;27.30;;;14.97;;
48861;SDS011;34681;49.188;-0.374;2023-07-02T00:16:53;28.97;;;15.07;;
48861;SDS011;34681;49.188;-0.374;2023-07-02T00:19:18;23.93;;;13.23;;
48861;SDS011;34681;49.188;-0.374;2023-07-02T00:21:43;23.47;;;13.37;;
48861;SDS011;34681;49.188;-0.374;2023-07-02T00:24:09;27.73;;;13.80;;
48861;SDS011;34681;49.188;-0.374;2023-07-02T00:26:35;27.30;;;12.90;;
48861;SDS011;34681;49.188;-0.374;2023-07-02T00:29:01;30.70;;;13.93;;
48861;SDS011;34681;49.188;-0.374;2023-07-02T00:31:28;23.97;;;14.13;;
48861;SDS011;34681;49.188;-0.374;2023-07-02T00:33:54;25.60;;;13.83;;
48861;SDS011;34681;49.188;-0.374;2023-07-02T00:36:19;19.97;;;13.50;;
48861;SDS011;34681;49.188;-0.374;2023-07-02T00:38:45;25.80;;;12.87;;
48861;SDS011;34681;49.188;-0.374;2023-07-02T00:41:12;28.57;;;13.90;;
48861;SDS011;34681;49.188;-0.374;2023-07-02T00:43:38;22.83;;;12.83;;
48861;SDS011;34681;49.188;-0.374;2023-07-02T00:46:17;24.80;;;13.60;;
48861;SDS011;34681;49.188;-0.374;2023-07-02T00:48:48;26.33;;;13.30;;
48861;SDS011;34681;49.188;-0.374;2023-07-02T00:51:15;28.47;;;13.93;;
48861;SDS011;34681;49.188;-0.374;2023-07-02T00:53:43;32.97;;;13.63;;
48861;SDS011;34681;49.188;-0.374;2023-07-02T00:56:09;25.90;;;13.63;;
48861;SDS011;34681;49.188;-0.374;2023-07-02T00:58:37;26.97;;;13.33;;
48861;SDS011;34681;49.188;-0.374;2023-07-02T01:01:05;26.57;;;14.83;;
48861;SDS011;34681;49.188;-0.374;2023-07-02T01:03:30;21.80;;;12.97;;
48861;SDS011;34681;49.188;-0.374;2023-07-02T01:05:58;24.10;;;13.23;;
48861;SDS011;34681;49.188;-0.374;2023-07-02T01:08:24;22.43;;;13.20;;
48861;SDS011;34681;49.188;-0.374;2023-07-02T01:10:49;31.63;;;13.80;;
48861;SDS011;34681;49.188;-0.374;2023-07-02T01:13:15;24.07;;;12.53;;
48861;SDS011;34681;49.188;-0.374;2023-07-02T01:15:44;24.43;;;13.90;;
48861;SDS011;34681;49.188;-0.374;2023-07-02T01:18:10;25.93;;;11.83;;
48861;SDS011;34681;49.188;-0.374;2023-07-02T01:20:38;24.33;;;12.60;;
48861;SDS011;34681;49.188;-0.374;2023-07-02T01:23:04;23.97;;;12.50;;
48861;SDS011;34681;49.188;-0.374;2023-07-02T01:25:30;23.00;;;12.00;;
48861;SDS011;34681;49.188;-0.374;2023-07-02T01:27:55;17.00;;;11.67;;
48861;SDS011;34681;49.188;-0.374;2023-07-02T01:30:23;20.77;;;13.43;;
48861;SDS011;34681;49.188;-0.374;2023-07-02T01:32:49;22.70;;;14.30;;
48861;SDS011;34681;49.188;-0.374;2023-07-02T01:35:14;24.23;;;12.70;;
48861;SDS011;34681;49.188;-0.374;2023-07-02T01:37:41;23.27;;;13.50;;
48861;SDS011;34681;49.188;-0.374;2023-07-02T01:40:06;23.63;;;12.47;;
48861;SDS011;34681;49.188;-0.374;2023-07-02T01:42:33;25.17;;;12.73;;
48861;SDS011;34681;49.188;-0.374;2023-07-02T01:44:59;26.00;;;12.63;;
48861;SDS011;34681;49.188;-0.374;2023-07-02T01:47:24;29.23;;;13.80;;
48861;SDS011;34681;49.188;-0.374;2023-07-02T01:49:50;25.73;;;13.30;;
48861;SDS011;34681;49.188;-0.374;2023-07-02T01:52:16;23.23;;;14.00;;
48861;SDS011;34681;49.188;-0.374;2023-07-02T01:54:42;20.63;;;13.27;;
48861;SDS011;34681;49.188;-0.374;2023-07-02T01:57:07;20.43;;;12.27;;
48861;SDS011;34681;49.188;-0.374;2023-07-02T01:59:33;25.40;;;13.87;;
48861;SDS011;34681;49.188;-0.374;2023-07-02T02:01:59;27.17;;;14.40;;
48861;SDS011;34681;49.188;-0.374;2023-07-02T02:04:24;27.77;;;13.37;;
48861;SDS011;34681;49.188;-0.374;2023-07-02T02:06:50;21.90;;;13.47;;
48861;SDS011;34681;49.188;-0.374;2023-07-02T02:09:17;25.77;;;14.23;;
48861;SDS011;34681;49.188;-0.374;2023-07-02T02:11:43;26.23;;;14.20;;
48861;SDS011;34681;49.188;-0.374;2023-07-02T02:14:14;25.70;;;12.47;;
48861;SDS011;34681;49.188;-0.374;2023-07-02T02:16:39;23.30;;;14.17;;
48861;SDS011;34681;49.188;-0.374;2023-07-02T02:19:05;20.83;;;13.30;;
48861;SDS011;34681;49.188;-0.374;2023-07-02T02:21:30;20.83;;;13.37;;
48861;SDS011;34681;49.188;-0.374;2023-07-02T02:23:56;19.13;;;13.07;;
48861;SDS011;34681;49.188;-0.374;2023-07-02T02:26:22;18.77;;;13.40;;
48861;SDS011;34681;49.188;-0.374;2023-07-02T02:28:50;23.40;;;13.97;;
48861;SDS011;34681;49.188;-0.374;2023-07-02T02:31:16;22.13;;;12.97;;
48861;SDS011;34681;49.188;-0.374;2023-07-02T02:33:41;21.23;;;13.70;;
48861;SDS011;34681;49.188;-0.374;2023-07-02T02:36:07;31.40;;;14.90;;
48861;SDS011;34681;49.188;-0.374;2023-07-02T02:38:32;24.47;;;14.10;;
48861;SDS011;34681;49.188;-0.374;2023-07-02T02:40:59;25.03;;;14.83;;
48861;SDS011;34681;49.188;-0.374;2023-07-02T02:43:25;24.70;;;14.50;;
48861;SDS011;34681;49.188;-0.374;2023-07-02T02:45:50;28.00;;;15.07;;
48861;SDS011;34681;49.188;-0.374;2023-07-02T02:48:16;25.33;;;14.33;;
48861;SDS011;34681;49.188;-0.374;2023-07-02T02:50:41;23.97;;;14.40;;
48861;SDS011;34681;49.188;-0.374;2023-07-02T02:53:08;30.77;;;16.43;;
48861;SDS011;34681;49.188;-0.374;2023-07-02T02:55:33;28.70;;;14.23;;
48861;SDS011;34681;49.188;-0.374;2023-07-02T02:57:59;30.47;;;15.40;;
48861;SDS011;34681;49.188;-0.374;2023-07-02T03:00:24;25.00;;;14.47;;
48861;SDS011;34681;49.188;-0.374;2023-07-02T03:02:50;27.13;;;14.70;;
48861;SDS011;34681;49.188;-0.374;2023-07-02T03:05:15;29.80;;;16.90;;
48861;SDS011;34681;49.188;-0.374;2023-07-02T03:07:41;29.00;;;15.67;;
48861;SDS011;34681;49.188;-0.374;2023-07-02T03:10:07;25.33;;;14.37;;
48861;SDS011;34681;49.188;-0.374;2023-07-02T03:12:33;28.27;;;16.33;;
48861;SDS011;34681;49.188;-0.374;2023-07-02T03:14:59;24.67;;;15.13;;
48861;SDS011;34681;49.188;-0.374;2023-07-02T03:17:24;28.70;;;17.07;;
48861;SDS011;34681;49.188;-0.374;2023-07-02T03:19:49;22.60;;;14.00;;
48861;SDS011;34681;49.188;-0.374;2023-07-02T03:22:15;24.43;;;16.43;;
48861;SDS011;34681;49.188;-0.374;2023-07-02T03:24:41;23.90;;;15.17;;
48861;SDS011;34681;49.188;-0.374;2023-07-02T03:27:06;25.30;;;14.90;;
48861;SDS011;34681;49.188;-0.374;2023-07-02T03:29:33;26.57;;;15.07;;
48861;SDS011;34681;49.188;-0.374;2023-07-02T03:32:00;22.20;;;15.70;;
48861;SDS011;34681;49.188;-0.374;2023-07-02T03:34:25;26.07;;;16.23;;
48861;SDS011;34681;49.188;-0.374;2023-07-02T03:36:51;26.40;;;16.87;;
48861;SDS011;34681;49.188;-0.374;2023-07-02T03:39:16;25.50;;;16.27;;
48861;SDS011;34681;49.188;-0.374;2023-07-02T03:41:42;25.33;;;16.00;;
48861;SDS011;34681;49.188;-0.374;2023-07-02T03:44:11;22.73;;;15.80;;
48861;SDS011;34681;49.188;-0.374;2023-07-02T03:46:36;25.13;;;17.03;;
48861;SDS011;34681;49.188;-0.374;2023-07-02T03:49:02;28.40;;;18.37;;
48861;SDS011;34681;49.188;-0.374;2023-07-02T03:51:28;27.70;;;17.63;;
48861;SDS011;34681;49.188;-0.374;2023-07-02T03:53:53;27.23;;;15.33;;
48861;SDS011;34681;49.188;-0.374;2023-07-02T03:56:19;28.27;;;15.40;;
48861;SDS011;34681;49.188;-0.374;2023-07-02T03:58:44;26.87;;;16.57;;
48861;SDS011;34681;49.188;-0.374;2023-07-02T04:01:09;22.80;;;16.70;;
48861;SDS011;34681;49.188;-0.374;2023-07-02T04:03:35;27.70;;;16.27;;
48861;SDS011;34681;49.188;-0.374;2023-07-02T04:06:01;24.37;;;16.33;;
48861;SDS011;34681;49.188;-0.374;2023-07-02T04:08:26;26.90;;;15.87;;
48861;SDS011;34681;49.188;-0.374;2023-07-02T04:10:53;23.10;;;16.80;;
48861;SDS011;34681;49.188;-0.374;2023-07-02T04:13:19;23.63;;;16.10;;
48861;SDS011;34681;49.188;-0.374;2023-07-02T04:15:44;30.63;;;17.87;;
48861;SDS011;34681;49.188;-0.374;2023-07-02T04:18:10;35.33;;;16.63;;
48861;SDS011;34681;49.188;-0.374;2023-07-02T04:20:35;27.40;;;15.73;;
48861;SDS011;34681;49.188;-0.374;2023-07-02T04:23:03;27.43;;;16.80;;
48861;SDS011;34681;49.188;-0.374;2023-07-02T04:25:29;32.83;;;18.87;;
48861;SDS011;34681;49.188;-0.374;2023-07-02T04:27:54;26.13;;;17.73;;
48861;SDS011;34681;49.188;-0.374;2023-07-02T04:30:21;29.60;;;16.47;;
48861;SDS011;34681;49.188;-0.374;2023-07-02T04:32:47;26.43;;;15.57;;
48861;SDS011;34681;49.188;-0.374;2023-07-02T04:35:12;29.10;;;17.13;;
48861;SDS011;34681;49.188;-0.374;2023-07-02T04:37:37;28.07;;;16.97;;
48861;SDS011;34681;49.188;-0.374;2023-07-02T04:40:03;27.07;;;17.07;;
48861;SDS011;34681;49.188;-0.374;2023-07-02T04:42:34;31.67;;;16.83;;
48861;SDS011;34681;49.188;-0.374;2023-07-02T04:45:03;27.77;;;16.93;;
48861;SDS011;34681;49.188;-0.374;2023-07-02T04:47:29;37.57;;;19.30;;
48861;SDS011;34681;49.188;-0.374;2023-07-02T04:49:54;28.23;;;16.73;;
48861;SDS011;34681;49.188;-0.374;2023-07-02T04:52:20;30.00;;;16.53;;
48861;SDS011;34681;49.188;-0.374;2023-07-02T04:54:45;23.30;;;15.57;;
48861;SDS011;34681;49.188;-0.374;2023-07-02T04:57:11;30.93;;;16.40;;
48861;SDS011;34681;49.188;-0.374;2023-07-02T04:59:38;30.20;;;16.53;;
48861;SDS011;34681;49.188;-0.374;2023-07-02T05:02:03;27.03;;;16.30;;
48861;SDS011;34681;49.188;-0.374;2023-07-02T05:04:28;26.77;;;16.50;;
48861;SDS011;34681;49.188;-0.374;2023-07-02T05:06:54;29.37;;;16.80;;
48861;SDS011;34681;49.188;-0.374;2023-07-02T05:09:19;21.63;;;15.80;;
48861;SDS011;34681;49.188;-0.374;2023-07-02T05:11:44;26.17;;;17.07;;
48861;SDS011;34681;49.188;-0.374;2023-07-02T05:14:10;22.27;;;15.77;;
48861;SDS011;34681;49.188;-0.374;2023-07-02T05:16:35;26.00;;;15.63;;
48861;SDS011;34681;49.188;-0.374;2023-07-02T05:19:01;25.07;;;15.40;;
48861;SDS011;34681;49.188;-0.374;2023-07-02T05:21:26;33.83;;;16.70;;
48861;SDS011;34681;49.188;-0.374;2023-07-02T05:23:51;29.47;;;15.20;;
48861;SDS011;34681;49.188;-0.374;2023-07-02T05:26:17;23.40;;;15.30;;
48861;SDS011;34681;49.188;-0.374;2023-07-02T05:28:42;30.03;;;15.77;;
48861;SDS011;34681;49.188;-0.374;2023-07-02T05:31:08;25.67;;;15.40;;
48861;SDS011;34681;49.188;-0.374;2023-07-02T05:33:34;27.20;;;16.23;;
48861;SDS011;34681;49.188;-0.374;2023-07-02T05:35:59;19.90;;;14.60;;
48861;SDS011;34681;49.188;-0.374;2023-07-02T05:38:24;27.40;;;15.07;;
48861;SDS011;34681;49.188;-0.374;2023-07-02T05:40:51;24.27;;;15.40;;
48861;SDS011;34681;49.188;-0.374;2023-07-02T05:43:16;25.13;;;14.33;;
48861;SDS011;34681;49.188;-0.374;2023-07-02T05:45:41;29.60;;;15.20;;
48861;SDS011;34681;49.188;-0.374;2023-07-02T05:48:07;25.67;;;15.17;;
48861;SDS011;34681;49.188;-0.374;2023-07-02T05:50:32;24.93;;;14.30;;
48861;SDS011;34681;49.188;-0.374;2023-07-02T05:52:58;24.43;;;15.23;;
48861;SDS011;34681;49.188;-0.374;2023-07-02T05:55:23;29.27;;;15.40;;
48861;SDS011;34681;49.188;-0.374;2023-07-02T05:57:49;26.33;;;15.70;;
48861;SDS011;34681;49.188;-0.374;2023-07-02T06:00:14;26.23;;;13.87;;
48861;SDS011;34681;49.188;-0.374;2023-07-02T06:02:40;30.00;;;16.23;;
48861;SDS011;34681;49.188;-0.374;2023-07-02T06:05:05;32.27;;;14.93;;
48861;SDS011;34681;49.188;-0.374;2023-07-02T06:07:31;28.63;;;14.60;;
48861;SDS011;34681;49.188;-0.374;2023-07-02T06:09:56;28.23;;;14.23;;
48861;SDS011;34681;49.188;-0.374;2023-07-02T06:12:22;25.33;;;13.80;;
48861;SDS011;34681;49.188;-0.374;2023-07-02T06:14:47;31.87;;;16.60;;
48861;SDS011;34681;49.188;-0.374;2023-07-02T06:17:13;25.50;;;14.93;;
48861;SDS011;34681;49.188;-0.374;2023-07-02T06:19:39;22.60;;;13.80;;
48861;SDS011;34681;49.188;-0.374;2023-07-02T06:22:04;26.50;;;14.70;;
48861;SDS011;34681;49.188;-0.374;2023-07-02T06:24:30;26.13;;;14.83;;
48861;SDS011;34681;49.188;-0.374;2023-07-02T06:26:56;23.87;;;13.70;;
48861;SDS011;34681;49.188;-0.374;2023-07-02T06:29:22;25.40;;;14.37;;
48861;SDS011;34681;49.188;-0.374;2023-07-02T06:31:48;26.93;;;13.90;;
48861;SDS011;34681;49.188;-0.374;2023-07-02T06:34:14;22.90;;;14.27;;
48861;SDS011;34681;49.188;-0.374;2023-07-02T06:36:39;26.47;;;13.70;;
48861;SDS011;34681;49.188;-0.374;2023-07-02T06:39:05;30.77;;;13.53;;
48861;SDS011;34681;49.188;-0.374;2023-07-02T06:41:30;29.00;;;14.80;;
48861;SDS011;34681;49.188;-0.374;2023-07-02T06:43:56;19.87;;;12.40;;
48861;SDS011;34681;49.188;-0.374;2023-07-02T06:46:21;20.80;;;13.03;;
48861;SDS011;34681;49.188;-0.374;2023-07-02T06:48:46;20.70;;;12.33;;
48861;SDS011;34681;49.188;-0.374;2023-07-02T06:51:12;27.83;;;13.20;;
48861;SDS011;34681;49.188;-0.374;2023-07-02T06:53:39;17.27;;;11.70;;
48861;SDS011;34681;49.188;-0.374;2023-07-02T06:56:07;24.53;;;12.60;;
48861;SDS011;34681;49.188;-0.374;2023-07-02T06:58:34;19.33;;;11.83;;
48861;SDS011;34681;49.188;-0.374;2023-07-02T07:01:00;22.30;;;11.73;;
48861;SDS011;34681;49.188;-0.374;2023-07-02T07:03:25;21.47;;;11.50;;
48861;SDS011;34681;49.188;-0.374;2023-07-02T07:05:51;20.30;;;11.80;;
48861;SDS011;34681;49.188;-0.374;2023-07-02T07:08:16;24.13;;;12.20;;
48861;SDS011;34681;49.188;-0.374;2023-07-02T07:10:41;22.77;;;11.47;;
48861;SDS011;34681;49.188;-0.374;2023-07-02T07:13:07;26.37;;;11.07;;
48861;SDS011;34681;49.188;-0.374;2023-07-02T07:15:33;17.13;;;9.20;;
48861;SDS011;34681;49.188;-0.374;2023-07-02T07:18:02;15.33;;;9.57;;
48861;SDS011;34681;49.188;-0.374;2023-07-02T07:20:28;17.53;;;10.93;;
48861;SDS011;34681;49.188;-0.374;2023-07-02T07:22:55;14.60;;;9.37;;
48861;SDS011;34681;49.188;-0.374;2023-07-02T07:25:20;14.10;;;9.50;;
48861;SDS011;34681;49.188;-0.374;2023-07-02T07:27:46;17.27;;;9.53;;
48861;SDS011;34681;49.188;-0.374;2023-07-02T07:30:11;18.40;;;10.00;;
48861;SDS011;34681;49.188;-0.374;2023-07-02T07:32:37;18.10;;;9.27;;
48861;SDS011;34681;49.188;-0.374;2023-07-02T07:35:03;15.07;;;9.57;;
48861;SDS011;34681;49.188;-0.374;2023-07-02T07:37:29;19.33;;;10.40;;
48861;SDS011;34681;49.188;-0.374;2023-07-02T07:39:54;10.40;;;7.93;;
48861;SDS011;34681;49.188;-0.374;2023-07-02T07:42:19;19.70;;;9.27;;
48861;SDS011;34681;49.188;-0.374;2023-07-02T07:44:45;16.77;;;8.97;;
48861;SDS011;34681;49.188;-0.374;2023-07-02T07:47:11;19.40;;;8.90;;
48861;SDS011;34681;49.188;-0.374;2023-07-02T07:49:36;13.17;;;8.80;;
48861;SDS011;34681;49.188;-0.374;2023-07-02T07:52:02;17.47;;;7.50;;
48861;SDS011;34681;49.188;-0.374;2023-07-02T07:54:28;12.63;;;6.93;;
48861;SDS011;34681;49.188;-0.374;2023-07-02T07:56:54;12.63;;;7.23;;
48861;SDS011;34681;49.188;-0.374;2023-07-02T07:59:19;12.93;;;6.77;;
48861;SDS011;34681;49.188;-0.374;2023-07-02T08:01:45;16.57;;;7.60;;
48861;SDS011;34681;49.188;-0.374;2023-07-02T08:04:11;13.63;;;6.77;;
48861;SDS011;34681;49.188;-0.374;2023-07-02T08:06:37;10.00;;;5.60;;
48861;SDS011;34681;49.188;-0.374;2023-07-02T08:09:02;13.40;;;6.57;;
48861;SDS011;34681;49.188;-0.374;2023-07-02T08:11:28;12.43;;;6.17;;
48861;SDS011;34681;49.188;-0.374;2023-07-02T08:13:53;10.60;;;5.73;;
48861;SDS011;34681;49.188;-0.374;2023-07-02T08:16:19;13.37;;;6.30;;
48861;SDS011;34681;49.188;-0.374;2023-07-02T08:18:44;13.33;;;6.17;;
48861;SDS011;34681;49.188;-0.374;2023-07-02T08:21:10;6.63;;;4.80;;
48861;SDS011;34681;49.188;-0.374;2023-07-02T08:23:36;12.23;;;5.90;;
48861;SDS011;34681;49.188;-0.374;2023-07-02T08:26:02;10.00;;;5.00;;
48861;SDS011;34681;49.188;-0.374;2023-07-02T08:28:28;10.30;;;5.17;;
48861;SDS011;34681;49.188;-0.374;2023-07-02T08:30:53;11.00;;;5.17;;
48861;SDS011;34681;49.188;-0.374;2023-07-02T08:33:18;6.70;;;4.27;;
48861;SDS011;34681;49.188;-0.374;2023-07-02T08:35:44;7.50;;;4.40;;
48861;SDS011;34681;49.188;-0.374;2023-07-02T08:38:09;12.27;;;5.10;;
48861;SDS011;34681;49.188;-0.374;2023-07-02T08:40:35;11.50;;;5.87;;
48861;SDS011;34681;49.188;-0.374;2023-07-02T08:43:00;8.10;;;4.47;;
48861;SDS011;34681;49.188;-0.374;2023-07-02T08:45:25;8.63;;;4.60;;
48861;SDS011;34681;49.188;-0.374;2023-07-02T08:47:51;10.80;;;5.23;;
48861;SDS011;34681;49.188;-0.374;2023-07-02T08:50:21;11.27;;;6.03;;
48861;SDS011;34681;49.188;-0.374;2023-07-02T08:52:47;7.10;;;4.70;;
48861;SDS011;34681;49.188;-0.374;2023-07-02T08:55:12;7.83;;;5.00;;
48861;SDS011;34681;49.188;-0.374;2023-07-02T08:57:38;8.43;;;4.67;;
48861;SDS011;34681;49.188;-0.374;2023-07-02T09:00:09;9.47;;;5.93;;
48861;SDS011;34681;49.188;-0.374;2023-07-02T09:02:35;10.90;;;5.33;;
48861;SDS011;34681;49.188;-0.374;2023-07-02T09:05:03;7.93;;;5.13;;
48861;SDS011;34681;49.188;-0.374;2023-07-02T09:07:29;9.40;;;5.07;;
48861;SDS011;34681;49.188;-0.374;2023-07-02T09:09:55;9.30;;;5.50;;
48861;SDS011;34681;49.188;-0.374;2023-07-02T09:12:27;12.97;;;5.37;;
48861;SDS011;34681;49.188;-0.374;2023-07-02T09:14:54;9.70;;;6.10;;
48861;SDS011;34681;49.188;-0.374;2023-07-02T09:17:43;7.63;;;4.93;;
48861;SDS011;34681;49.188;-0.374;2023-07-02T09:20:08;13.50;;;5.90;;
48861;SDS011;34681;49.188;-0.374;2023-07-02T09:22:34;12.40;;;5.70;;
48861;SDS011;34681;49.188;-0.374;2023-07-02T09:25:01;8.30;;;5.03;;
48861;SDS011;34681;49.188;-0.374;2023-07-02T09:27:33;10.07;;;5.70;;
48861;SDS011;34681;49.188;-0.374;2023-07-02T09:30:10;13.07;;;5.10;;
48861;SDS011;34681;49.188;-0.374;2023-07-02T09:32:41;10.43;;;5.00;;
48861;SDS011;34681;49.188;-0.374;2023-07-02T09:35:09;9.60;;;5.60;;
48861;SDS011;34681;49.188;-0.374;2023-07-02T09:37:34;8.40;;;4.97;;
48861;SDS011;34681;49.188;-0.374;2023-07-02T09:40:00;6.80;;;4.10;;
48861;SDS011;34681;49.188;-0.374;2023-07-02T09:42:26;12.70;;;6.17;;
48861;SDS011;34681;49.188;-0.374;2023-07-02T09:44:54;6.30;;;4.50;;
48861;SDS011;34681;49.188;-0.374;2023-07-02T09:47:20;8.53;;;4.77;;
48861;SDS011;34681;49.188;-0.374;2023-07-02T09:49:49;11.17;;;6.60;;
48861;SDS011;34681;49.188;-0.374;2023-07-02T09:52:19;8.67;;;4.97;;
48861;SDS011;34681;49.188;-0.374;2023-07-02T09:54:45;7.57;;;4.80;;
48861;SDS011;34681;49.188;-0.374;2023-07-02T09:57:11;8.80;;;5.43;;
48861;SDS011;34681;49.188;-0.374;2023-07-02T09:59:37;15.43;;;5.23;;
48861;SDS011;34681;49.188;-0.374;2023-07-02T10:02:03;6.87;;;5.80;;
48861;SDS011;34681;49.188;-0.374;2023-07-02T10:04:38;11.10;;;6.00;;
48861;SDS011;34681;49.188;-0.374;2023-07-02T10:07:08;7.50;;;4.87;;
48861;SDS011;34681;49.188;-0.374;2023-07-02T10:09:36;11.43;;;5.57;;
48861;SDS011;34681;49.188;-0.374;2023-07-02T10:12:19;11.27;;;5.07;;
48861;SDS011;34681;49.188;-0.374;2023-07-02T10:14:46;10.63;;;4.80;;
48861;SDS011;34681;49.188;-0.374;2023-07-02T10:20:02;10.93;;;5.20;;
48861;SDS011;34681;49.188;-0.374;2023-07-02T10:22:42;10.93;;;5.60;;
48861;SDS011;34681;49.188;-0.374;2023-07-02T10:25:10;8.93;;;5.50;;
48861;SDS011;34681;49.188;-0.374;2023-07-02T10:27:39;10.77;;;6.73;;
48861;SDS011;34681;49.188;-0.374;2023-07-02T10:30:06;7.97;;;5.03;;
48861;SDS011;34681;49.188;-0.374;2023-07-02T10:32:34;25.10;;;11.77;;
48861;SDS011;34681;49.188;-0.374;2023-07-02T10:35:00;12.57;;;6.30;;
48861;SDS011;34681;49.188;-0.374;2023-07-02T10:37:38;12.97;;;5.10;;
48861;SDS011;34681;49.188;-0.374;2023-07-02T10:40:04;12.33;;;5.93;;
48861;SDS011;34681;49.188;-0.374;2023-07-02T10:42:31;11.17;;;6.10;;
48861;SDS011;34681;49.188;-0.374;2023-07-02T10:44:59;7.93;;;4.50;;
48861;SDS011;34681;49.188;-0.374;2023-07-02T10:47:24;12.83;;;6.27;;
48861;SDS011;34681;49.188;-0.374;2023-07-02T10:49:49;11.30;;;5.83;;
48861;SDS011;34681;49.188;-0.374;2023-07-02T10:52:15;12.70;;;5.70;;
48861;SDS011;34681;49.188;-0.374;2023-07-02T10:54:41;16.17;;;7.10;;
48861;SDS011;34681;49.188;-0.374;2023-07-02T10:57:08;14.50;;;6.03;;
48861;SDS011;34681;49.188;-0.374;2023-07-02T10:59:34;11.10;;;5.87;;
48861;SDS011;34681;49.188;-0.374;2023-07-02T11:02:00;9.13;;;5.83;;
48861;SDS011;34681;49.188;-0.374;2023-07-02T11:04:28;11.30;;;6.60;;
48861;SDS011;34681;49.188;-0.374;2023-07-02T11:06:55;12.50;;;6.10;;
48861;SDS011;34681;49.188;-0.374;2023-07-02T11:09:20;15.10;;;6.50;;
48861;SDS011;34681;49.188;-0.374;2023-07-02T11:11:53;9.10;;;5.43;;
48861;SDS011;34681;49.188;-0.374;2023-07-02T11:14:26;12.50;;;5.87;;
48861;SDS011;34681;49.188;-0.374;2023-07-02T11:16:56;10.80;;;5.77;;
48861;SDS011;34681;49.188;-0.374;2023-07-02T11:19:22;12.60;;;6.63;;
48861;SDS011;34681;49.188;-0.374;2023-07-02T11:21:51;8.53;;;5.37;;
48861;SDS011;34681;49.188;-0.374;2023-07-02T11:24:26;10.57;;;5.67;;
48861;SDS011;34681;49.188;-0.374;2023-07-02T11:26:59;8.33;;;5.10;;
48861;SDS011;34681;49.188;-0.374;2023-07-02T11:29:28;11.87;;;5.80;;
48861;SDS011;34681;49.188;-0.374;2023-07-02T11:31:55;9.97;;;5.90;;
48861;SDS011;34681;49.188;-0.374;2023-07-02T11:34:29;13.60;;;5.97;;
48861;SDS011;34681;49.188;-0.374;2023-07-02T11:36:55;12.37;;;5.93;;
48861;SDS011;34681;49.188;-0.374;2023-07-02T11:39:20;11.27;;;5.47;;
48861;SDS011;34681;49.188;-0.374;2023-07-02T11:41:46;14.23;;;6.30;;
48861;SDS011;34681;49.188;-0.374;2023-07-02T11:44:13;12.93;;;5.77;;
48861;SDS011;34681;49.188;-0.374;2023-07-02T11:46:38;11.73;;;5.80;;
48861;SDS011;34681;49.188;-0.374;2023-07-02T11:49:04;10.00;;;7.00;;
48861;SDS011;34681;49.188;-0.374;2023-07-02T11:51:32;12.10;;;5.80;;
48861;SDS011;34681;49.188;-0.374;2023-07-02T11:53:58;13.03;;;7.60;;
48861;SDS011;34681;49.188;-0.374;2023-07-02T11:56:23;12.00;;;5.90;;
48861;SDS011;34681;49.188;-0.374;2023-07-02T11:58:49;11.20;;;6.40;;
48861;SDS011;34681;49.188;-0.374;2023-07-02T12:01:14;15.57;;;5.93;;
48861;SDS011;34681;49.188;-0.374;2023-07-02T12:03:40;9.23;;;5.80;;
48861;SDS011;34681;49.188;-0.374;2023-07-02T12:06:05;10.77;;;6.07;;
48861;SDS011;34681;49.188;-0.374;2023-07-02T12:08:30;8.60;;;5.00;;
48861;SDS011;34681;49.188;-0.374;2023-07-02T12:10:56;16.17;;;5.40;;
48861;SDS011;34681;49.188;-0.374;2023-07-02T12:13:21;15.80;;;6.03;;
48861;SDS011;34681;49.188;-0.374;2023-07-02T12:15:47;12.53;;;5.70;;
48861;SDS011;34681;49.188;-0.374;2023-07-02T12:18:12;15.60;;;6.83;;
48861;SDS011;34681;49.188;-0.374;2023-07-02T12:20:41;14.13;;;6.00;;
48861;SDS011;34681;49.188;-0.374;2023-07-02T12:23:06;10.30;;;6.17;;
48861;SDS011;34681;49.188;-0.374;2023-07-02T12:25:31;8.20;;;4.70;;
48861;SDS011;34681;49.188;-0.374;2023-07-02T12:27:57;10.83;;;5.40;;
48861;SDS011;34681;49.188;-0.374;2023-07-02T12:30:22;12.83;;;5.37;;
48861;SDS011;34681;49.188;-0.374;2023-07-02T12:32:48;10.00;;;6.17;;
48861;SDS011;34681;49.188;-0.374;2023-07-02T12:35:13;15.90;;;6.33;;
48861;SDS011;34681;49.188;-0.374;2023-07-02T12:37:42;12.73;;;6.30;;
48861;SDS011;34681;49.188;-0.374;2023-07-02T12:40:09;13.00;;;6.40;;
48861;SDS011;34681;49.188;-0.374;2023-07-02T12:42:35;10.77;;;5.80;;
48861;SDS011;34681;49.188;-0.374;2023-07-02T12:45:00;13.17;;;7.20;;
48861;SDS011;34681;49.188;-0.374;2023-07-02T12:47:25;12.47;;;6.00;;
48861;SDS011;34681;49.188;-0.374;2023-07-02T12:49:51;13.47;;;6.03;;
48861;SDS011;34681;49.188;-0.374;2023-07-02T12:52:16;14.10;;;6.67;;
48861;SDS011;34681;49.188;-0.374;2023-07-02T12:54:41;13.00;;;5.87;;
48861;SDS011;34681;49.188;-0.374;2023-07-02T12:57:07;9.93;;;5.27;;
48861;SDS011;34681;49.188;-0.374;2023-07-02T12:59:32;7.33;;;5.67;;
48861;SDS011;34681;49.188;-0.374;2023-07-02T13:01:58;8.30;;;5.30;;
48861;SDS011;34681;49.188;-0.374;2023-07-02T13:04:23;16.73;;;5.67;;
48861;SDS011;34681;49.188;-0.374;2023-07-02T13:06:48;7.50;;;4.30;;
48861;SDS011;34681;49.188;-0.374;2023-07-02T13:09:13;15.87;;;6.17;;
48861;SDS011;34681;49.188;-0.374;2023-07-02T13:11:39;9.33;;;6.03;;
48861;SDS011;34681;49.188;-0.374;2023-07-02T13:14:04;16.13;;;7.27;;
48861;SDS011;34681;49.188;-0.374;2023-07-02T13:16:29;10.20;;;5.53;;
48861;SDS011;34681;49.188;-0.374;2023-07-02T13:18:55;12.40;;;6.67;;
48861;SDS011;34681;49.188;-0.374;2023-07-02T13:21:21;16.50;;;6.67;;
48861;SDS011;34681;49.188;-0.374;2023-07-02T13:23:47;12.77;;;6.47;;
48861;SDS011;34681;49.188;-0.374;2023-07-02T13:26:12;13.93;;;5.70;;
48861;SDS011;34681;49.188;-0.374;2023-07-02T13:28:38;13.63;;;6.47;;
48861;SDS011;34681;49.188;-0.374;2023-07-02T13:31:03;10.30;;;5.63;;
48861;SDS011;34681;49.188;-0.374;2023-07-02T13:33:29;10.83;;;6.20;;
48861;SDS011;34681;49.188;-0.374;2023-07-02T13:35:55;9.17;;;5.50;;
48861;SDS011;34681;49.188;-0.374;2023-07-02T13:38:21;12.30;;;6.27;;
48861;SDS011;34681;49.188;-0.374;2023-07-02T13:40:47;14.10;;;6.10;;
48861;SDS011;34681;49.188;-0.374;2023-07-02T13:43:12;13.93;;;6.47;;
48861;SDS011;34681;49.188;-0.374;2023-07-02T13:45:38;9.90;;;5.47;;
48861;SDS011;34681;49.188;-0.374;2023-07-02T13:48:03;12.70;;;6.47;;
48861;SDS011;34681;49.188;-0.374;2023-07-02T13:50:30;12.00;;;6.20;;
48861;SDS011;34681;49.188;-0.374;2023-07-02T13:52:55;12.60;;;6.50;;
48861;SDS011;34681;49.188;-0.374;2023-07-02T13:55:20;11.90;;;6.23;;
48861;SDS011;34681;49.188;-0.374;2023-07-02T13:57:51;9.37;;;6.67;;
48861;SDS011;34681;49.188;-0.374;2023-07-02T14:00:17;10.57;;;6.30;;
48861;SDS011;34681;49.188;-0.374;2023-07-02T14:02:42;13.20;;;6.73;;
48861;SDS011;34681;49.188;-0.374;2023-07-02T14:05:07;12.07;;;6.87;;
48861;SDS011;34681;49.188;-0.374;2023-07-02T14:07:33;14.57;;;7.90;;
48861;SDS011;34681;49.188;-0.374;2023-07-02T14:09:58;11.60;;;6.77;;
48861;SDS011;34681;49.188;-0.374;2023-07-02T14:12:24;9.20;;;6.23;;
48861;SDS011;34681;49.188;-0.374;2023-07-02T14:14:49;12.40;;;6.23;;